createdAt,value
2023-03-07T06:50:29.891Z,89.80
2023-03-07T06:53:02.421Z,94.57
2023-03-07T06:55:29.911Z,76.53
2023-03-07T06:57:57.315Z,74.93
2023-03-07T07:00:24.736Z,79.97
2023-03-07T07:02:52.715Z,83.73
2023-03-07T07:05:20.774Z,79.17
2023-03-07T07:07:48.216Z,78.03
2023-03-07T07:10:15.500Z,71.57
2023-03-07T07:12:42.790Z,79.17
2023-03-07T07:15:10.524Z,83.87
2023-03-07T07:17:40.809Z,76.60
2023-03-07T07:20:11.346Z,84.20
2023-03-07T07:22:40.739Z,81.60
2023-03-07T07:25:09.769Z,83.83
2023-03-07T07:27:37.486Z,83.37
2023-03-07T07:30:05.663Z,81.93
2023-03-07T07:32:33.369Z,84.67
2023-03-07T07:35:02.267Z,79.47
2023-03-07T07:37:31.361Z,86.10
2023-03-07T07:39:58.690Z,75.23
2023-03-07T07:42:26.026Z,76.80
2023-03-07T07:45:16.889Z,80.80
2023-03-07T07:47:44.398Z,73.20
2023-03-07T07:50:11.926Z,71.43
2023-03-07T07:52:39.357Z,74.80
2023-03-07T07:55:06.731Z,61.00
2023-03-07T07:57:33.991Z,59.80
2023-03-07T08:00:01.344Z,65.30
2023-03-07T08:02:28.976Z,63.70
2023-03-07T08:04:56.293Z,59.47
2023-03-07T08:07:23.732Z,63.83
2023-03-07T08:09:50.990Z,59.67
2023-03-07T08:12:18.239Z,64.40
2023-03-07T09:10:35.520Z,52.00
2023-03-07T09:13:02.736Z,52.70
2023-03-07T09:15:29.621Z,58.73
2023-03-07T09:17:56.547Z,48.97
2023-03-07T09:20:23.524Z,50.47
2023-03-07T09:22:51.724Z,50.27
2023-03-07T09:25:18.976Z,47.90
2023-03-07T09:27:46.000Z,49.30
2023-03-07T09:30:14.246Z,48.00
2023-03-07T09:32:41.746Z,52.20
2023-03-07T09:35:10.395Z,49.17
2023-03-07T09:37:38.009Z,51.50
2023-03-07T09:40:07.683Z,54.80
2023-03-07T09:42:58.586Z,52.83
2023-03-07T09:45:39.297Z,60.90
2023-03-07T09:48:44.354Z,55.90
2023-03-07T09:51:16.928Z,55.63
2023-03-07T09:54:13.759Z,63.90
2023-03-07T09:56:53.886Z,55.13
2023-03-07T09:59:34.681Z,52.27
2023-03-07T10:02:06.090Z,49.33
2023-03-07T10:05:02.737Z,49.37
2023-03-07T10:07:29.925Z,52.47
2023-03-07T10:10:28.224Z,50.63
2023-03-07T10:13:35.550Z,47.73
2023-03-07T10:16:15.500Z,49.47
2023-03-07T10:18:54.524Z,50.77
2023-03-07T10:21:40.513Z,49.33
2023-03-07T10:24:13.125Z,52.57
2023-03-07T10:27:06.604Z,50.63
2023-03-07T10:29:49.748Z,53.20
2023-03-07T10:32:22.216Z,55.23
2023-03-07T10:34:57.966Z,55.33
2023-03-07T10:37:31.230Z,58.97
2023-03-07T10:39:59.448Z,53.47
2023-03-07T10:42:32.237Z,58.57
2023-03-07T10:44:59.172Z,58.23
2023-03-07T10:47:28.553Z,60.43
2023-03-07T10:50:21.922Z,56.07
2023-03-07T10:52:58.171Z,56.93
2023-03-07T10:55:41.490Z,57.67
2023-03-07T10:58:20.489Z,57.73
2023-03-07T11:01:07.217Z,59.10
2023-03-07T11:03:58.637Z,59.37
2023-03-07T11:06:25.649Z,59.20
2023-03-07T11:08:52.668Z,61.80
2023-03-07T11:11:25.114Z,59.20
2023-03-07T11:14:06.300Z,59.53
2023-03-07T11:16:33.403Z,59.77
2023-03-07T11:19:00.414Z,62.03
2023-03-07T11:21:36.266Z,61.57
2023-03-07T11:24:30.047Z,62.40
2023-03-07T11:26:58.656Z,61.07
2023-03-07T11:29:28.253Z,61.60
2023-03-07T11:32:18.663Z,58.83
2023-03-07T11:34:59.403Z,61.67
2023-03-07T11:37:39.545Z,62.20
2023-03-07T11:40:24.263Z,59.37
2023-03-07T11:43:42.664Z,58.90
2023-03-07T11:46:54.143Z,61.83
2023-03-07T11:49:35.958Z,63.13
2023-03-07T11:52:12.212Z,60.17
2023-03-07T11:54:57.993Z,59.27
2023-03-07T11:58:01.439Z,58.40
2023-03-07T12:00:43.487Z,54.33
2023-03-07T12:03:13.286Z,58.53
2023-03-07T12:05:45.987Z,57.00
2023-03-07T12:08:37.030Z,60.73
2023-03-07T12:23:20.885Z,47.33
2023-03-07T12:25:51.080Z,46.53
2023-03-07T12:28:36.790Z,45.30
2023-03-07T12:31:22.171Z,46.20
2023-03-07T12:34:09.902Z,47.93
2023-03-07T12:36:47.514Z,46.70
2023-03-07T12:39:24.726Z,45.63
2023-03-07T12:42:17.755Z,46.23
2023-03-07T12:44:56.755Z,45.87
2023-03-07T12:47:50.840Z,46.97
2023-03-07T12:50:39.159Z,47.63
2023-03-07T12:53:22.283Z,45.57
2023-03-07T12:55:57.068Z,47.27
2023-03-07T12:59:05.663Z,47.70
2023-03-07T13:01:40.286Z,45.00
2023-03-07T13:04:31.541Z,41.63
2023-03-07T13:07:11.945Z,47.87
2023-03-07T13:09:41.988Z,45.73
2023-03-07T13:12:22.582Z,42.33
2023-03-07T13:14:55.083Z,39.80
2023-03-07T13:17:31.177Z,38.20
2023-03-07T13:20:02.325Z,41.80
2023-03-07T13:22:29.291Z,41.10
2023-03-07T13:24:57.234Z,39.93
2023-03-07T13:27:44.358Z,41.77
2023-03-07T13:30:18.349Z,40.03
2023-03-07T13:32:51.072Z,38.37
2023-03-07T13:35:38.988Z,42.43
2023-03-07T13:38:24.323Z,40.07
2023-03-07T13:40:56.335Z,37.50
2023-03-07T13:43:24.196Z,41.13
2023-03-07T13:45:58.358Z,37.90
2023-03-07T13:48:26.128Z,39.87
2023-03-07T13:50:54.142Z,42.30
2023-03-07T13:53:35.974Z,38.47
2023-03-07T13:56:25.089Z,78.33
2023-03-07T13:59:02.417Z,47.00
2023-03-07T14:02:00.907Z,174.80
2023-03-07T14:04:40.766Z,66.67
2023-03-07T14:07:24.777Z,43.73
2023-03-07T14:10:19.569Z,37.30
2023-03-07T14:13:32.213Z,37.93
2023-03-07T14:16:16.836Z,34.43
2023-03-07T14:18:55.077Z,33.00
2023-03-07T14:21:27.568Z,37.40
2023-03-07T14:24:31.431Z,35.10
2023-03-07T14:27:02.995Z,35.20
2023-03-07T14:29:30.967Z,30.57
2023-03-07T14:32:00.897Z,32.23
2023-03-07T14:34:33.279Z,30.67
2023-03-07T14:37:08.903Z,37.90
2023-03-07T14:39:55.089Z,33.57
2023-03-07T14:42:22.451Z,32.07
2023-03-07T14:45:01.604Z,28.90
2023-03-07T14:47:46.694Z,29.30
2023-03-07T14:50:19.057Z,30.90
2023-03-07T14:52:47.108Z,31.70
2023-03-07T14:55:24.573Z,30.83
2023-03-07T14:57:54.770Z,29.33
2023-03-07T15:00:25.366Z,29.60
2023-03-07T15:02:57.845Z,31.63
2023-03-07T15:05:30.998Z,28.20
2023-03-07T15:07:58.666Z,28.50
2023-03-07T15:10:46.035Z,28.33
2023-03-07T15:13:26.555Z,29.17
2023-03-07T15:15:58.510Z,30.37
2023-03-07T15:18:29.671Z,28.13
2023-03-07T15:20:58.184Z,31.67
2023-03-07T15:23:30.119Z,31.67
2023-03-07T15:26:10.874Z,25.83
2023-03-07T15:28:40.500Z,28.90
2023-03-07T15:31:11.052Z,28.27
2023-03-07T15:33:38.394Z,35.03
2023-03-07T15:36:14.063Z,27.40
2023-03-07T15:38:43.191Z,26.83
2023-03-07T15:41:36.257Z,27.03
2023-03-07T15:44:17.873Z,27.80
2023-03-07T15:46:46.251Z,29.10
2023-03-07T15:49:50.414Z,28.23
2023-03-07T15:52:33.507Z,29.27
2023-03-07T15:55:05.407Z,29.17
2023-03-07T16:25:22.881Z,29.50
2023-03-07T16:27:54.670Z,27.63
2023-03-07T16:30:23.723Z,30.53
2023-03-07T16:32:51.173Z,27.77
2023-03-07T16:35:18.659Z,29.10
2023-03-07T16:37:48.283Z,32.43
2023-03-07T17:01:51.309Z,29.23
2023-03-07T17:04:18.532Z,30.70
2023-03-07T17:06:48.762Z,32.97
2023-03-07T17:09:17.782Z,34.83
2023-03-07T17:11:48.450Z,30.00
2023-03-07T17:14:16.725Z,32.90
2023-03-07T17:16:46.994Z,29.67
2023-03-07T17:19:25.929Z,29.57
2023-03-07T17:21:53.351Z,30.17
2023-03-07T17:24:20.767Z,31.53
2023-03-07T17:26:48.962Z,30.13
2023-03-07T17:29:24.750Z,30.13
2023-03-07T17:31:52.049Z,30.53
2023-03-07T17:34:26.220Z,30.37
2023-03-07T17:36:54.207Z,31.07
2023-03-07T17:39:22.678Z,28.33
2023-03-07T17:41:50.115Z,31.23
2023-03-07T17:44:18.158Z,30.90
2023-03-07T17:50:08.388Z,31.87
2023-03-07T17:52:43.191Z,31.43
2023-03-07T17:55:10.755Z,32.80
2023-03-07T17:57:38.188Z,29.27
2023-03-07T18:00:14.318Z,31.77
2023-03-07T18:02:44.166Z,32.67
2023-03-07T18:05:13.144Z,31.70
2023-03-07T18:07:43.416Z,33.10
2023-03-07T18:10:11.636Z,32.67
2023-03-07T18:12:39.451Z,39.80
2023-03-07T18:15:14.553Z,33.67
2023-03-07T18:17:48.308Z,32.20
2023-03-07T18:20:17.781Z,32.73
2023-03-07T18:22:45.085Z,34.53
2023-03-07T18:25:14.192Z,32.50
2023-03-07T18:27:41.484Z,30.93
2023-03-07T18:30:09.336Z,33.70
2023-03-07T18:32:36.672Z,33.67
2023-03-07T18:35:04.238Z,32.67
2023-03-07T18:37:31.565Z,31.83
2023-03-07T18:39:58.845Z,33.00
2023-03-07T18:42:27.391Z,28.93
2023-03-07T18:44:54.800Z,28.00
2023-03-07T18:47:22.106Z,30.77
2023-03-07T18:49:51.275Z,33.00
2023-03-07T18:52:18.867Z,29.13
2023-03-07T18:54:46.147Z,32.40
2023-03-07T18:57:13.376Z,28.57
2023-03-07T18:59:40.730Z,29.50
2023-03-07T19:02:08.258Z,28.60
2023-03-07T19:04:35.679Z,31.10
2023-03-07T19:07:04.017Z,31.03
2023-03-07T19:09:31.697Z,27.03
2023-03-07T19:11:59.028Z,31.30
2023-03-07T19:14:26.518Z,28.77
2023-03-07T19:16:55.172Z,29.67
2023-03-07T19:19:22.435Z,27.77
2023-03-07T19:21:49.693Z,31.47
2023-03-07T19:24:17.038Z,28.83
2023-03-07T19:26:44.524Z,28.07
2023-03-07T19:29:13.286Z,26.93
2023-03-07T19:31:43.981Z,24.67
2023-03-07T19:34:11.591Z,27.57
2023-03-07T19:36:41.420Z,27.10
2023-03-07T19:39:09.708Z,26.87
2023-03-07T19:41:40.894Z,27.83
2023-03-07T19:44:12.155Z,25.27
2023-03-07T19:46:53.226Z,23.43
2023-03-07T19:49:23.017Z,30.63
2023-03-07T19:51:50.263Z,25.27
2023-03-07T19:54:17.674Z,25.00
2023-03-07T19:56:45.731Z,30.43
2023-03-07T19:59:13.403Z,29.37
2023-03-07T20:01:40.864Z,24.97
2023-03-07T20:04:08.230Z,25.73
2023-03-07T20:06:35.650Z,27.30
2023-03-07T20:09:02.981Z,23.70
2023-03-07T20:11:31.600Z,24.30
2023-03-07T20:14:01.453Z,23.70
2023-03-07T20:16:29.182Z,24.80
2023-03-07T20:18:58.856Z,22.77
2023-03-07T20:21:28.256Z,23.17
2023-03-07T20:23:59.567Z,23.53
2023-03-07T20:26:47.407Z,23.30
2023-03-07T20:29:14.882Z,24.67
2023-03-07T20:31:42.206Z,27.17
2023-03-07T20:34:09.767Z,20.40
2023-03-07T20:36:40.402Z,23.03
2023-03-07T20:39:08.872Z,20.93
2023-03-07T20:41:36.918Z,18.10
2023-03-07T20:44:07.564Z,20.00
2023-03-07T20:46:39.108Z,23.10
2023-03-07T20:49:06.865Z,19.20
2023-03-07T20:51:35.660Z,19.23
2023-03-07T20:54:04.171Z,19.50
2023-03-07T20:56:32.762Z,19.77
2023-03-07T20:59:00.372Z,16.90
2023-03-07T21:01:30.036Z,20.20
2023-03-07T21:03:59.858Z,19.53
2023-03-07T21:06:27.205Z,21.27
2023-03-07T21:08:54.499Z,18.77
2023-03-07T21:11:22.107Z,19.07
2023-03-07T21:13:49.772Z,18.83
2023-03-07T21:16:22.003Z,21.43
2023-03-07T21:18:49.648Z,18.67
2023-03-07T21:21:21.593Z,18.17
2023-03-07T21:23:49.387Z,19.70
2023-03-07T21:26:18.317Z,17.23
2023-03-07T21:28:45.904Z,20.87
2023-03-07T21:31:13.255Z,19.20
2023-03-07T21:33:44.286Z,19.53
2023-03-07T21:36:14.266Z,18.93
2023-03-07T21:38:42.191Z,18.60
2023-03-07T21:41:10.140Z,20.80
2023-03-07T21:43:37.547Z,17.73
2023-03-07T21:46:05.923Z,19.37
2023-03-07T21:48:33.553Z,17.27
2023-03-07T21:51:01.972Z,19.37
2023-03-07T21:53:29.569Z,19.03
2023-03-07T21:55:58.407Z,17.87
2023-03-07T21:58:25.904Z,18.20
2023-03-07T22:00:55.228Z,16.97
2023-03-07T22:03:22.809Z,19.60
2023-03-07T22:05:50.100Z,18.03
2023-03-07T22:08:17.639Z,19.60
2023-03-07T22:10:44.917Z,18.73
2023-03-07T22:13:11.889Z,18.47
2023-03-07T22:15:40.308Z,16.67
2023-03-07T22:18:07.708Z,18.10
2023-03-07T22:20:34.983Z,21.30
2023-03-07T22:23:02.233Z,18.97
2023-03-07T22:25:29.532Z,17.63
2023-03-07T22:27:56.785Z,16.47
2023-03-07T22:30:23.889Z,16.47
2023-03-07T22:32:50.746Z,13.93
2023-03-07T22:35:17.752Z,11.10
2023-03-07T22:37:44.667Z,9.03
2023-03-07T22:40:12.188Z,6.20
2023-03-07T22:42:39.453Z,6.20
2023-03-07T22:45:07.070Z,3.00
2023-03-07T22:47:35.034Z,4.37
2023-03-07T22:50:02.351Z,4.70
2023-03-07T22:52:29.605Z,5.50
2023-03-07T22:54:57.021Z,7.83
2023-03-07T22:57:24.245Z,8.07
2023-03-07T22:59:51.517Z,6.07
2023-03-07T23:02:18.764Z,5.70
2023-03-07T23:04:46.143Z,5.87
2023-03-07T23:07:13.472Z,7.30
2023-03-07T23:09:40.852Z,4.47
2023-03-07T23:12:08.268Z,6.13
2023-03-07T23:14:37.085Z,6.60
2023-03-07T23:17:04.612Z,5.30
2023-03-07T23:19:31.951Z,6.87
2023-03-07T23:21:59.201Z,7.10
2023-03-07T23:24:26.040Z,5.80
2023-03-07T23:26:53.299Z,6.23
